createdAt,value
2018-03-03T00:01:31.886Z,63.40
2018-03-03T00:03:58.021Z,65.50
2018-03-03T00:06:24.157Z,64.63
2018-03-03T00:08:50.326Z,68.40
2018-03-03T00:11:17.207Z,60.77
2018-03-03T00:13:44.105Z,59.50
2018-03-03T00:16:10.303Z,61.40
2018-03-03T00:18:36.406Z,65.80
2018-03-03T00:21:02.554Z,64.67
2018-03-03T00:23:28.729Z,69.00
2018-03-03T00:25:55.625Z,68.83
2018-03-03T00:28:21.762Z,61.90
2018-03-03T00:30:47.898Z,64.87
2018-03-03T00:33:14.041Z,69.93
2018-03-03T00:35:40.252Z,68.00
2018-03-03T00:38:06.395Z,68.13
2018-03-03T00:40:33.313Z,67.33
2018-03-03T00:42:59.484Z,71.33
2018-03-03T00:45:26.368Z,72.07
2018-03-03T00:48:09.270Z,68.40
2018-03-03T00:50:35.416Z,66.13
2018-03-03T00:53:01.598Z,64.57
2018-03-03T00:55:28.550Z,72.00
2018-03-03T00:57:54.751Z,69.33
2018-03-03T01:00:20.907Z,70.37
2018-03-03T01:02:47.056Z,71.77
2018-03-03T01:05:13.253Z,70.00
2018-03-03T01:07:40.192Z,74.30
2018-03-03T01:10:07.131Z,65.87
2018-03-03T01:12:33.314Z,71.40
2018-03-03T01:14:59.508Z,72.07
2018-03-03T01:17:25.681Z,68.33
2018-03-03T01:19:51.868Z,72.53
2018-03-03T01:22:18.062Z,76.53
2018-03-03T01:24:44.193Z,76.73
2018-03-03T01:27:11.122Z,67.20
2018-03-03T01:29:37.252Z,68.70
2018-03-03T01:32:03.441Z,68.60
2018-03-03T01:34:29.654Z,77.07
2018-03-03T01:36:55.821Z,72.73
2018-03-03T01:39:21.997Z,71.77
2018-03-03T01:41:48.211Z,77.67
2018-03-03T01:44:15.096Z,69.67
2018-03-03T01:46:41.307Z,74.60
2018-03-03T01:49:07.471Z,75.00
2018-03-03T01:51:40.786Z,73.90
2018-03-03T01:54:07.006Z,73.90
2018-03-03T01:56:33.206Z,73.20
2018-03-03T01:58:59.368Z,84.73
2018-03-03T02:01:26.351Z,79.43
2018-03-03T02:03:52.555Z,70.77
2018-03-03T02:06:19.466Z,76.80
2018-03-03T02:08:45.672Z,78.03
2018-03-03T02:11:11.860Z,70.27
2018-03-03T02:13:38.739Z,72.40
2018-03-03T02:16:04.898Z,70.57
2018-03-03T02:18:31.068Z,75.43
2018-03-03T02:20:57.226Z,68.97
2018-03-03T02:23:23.388Z,75.20
2018-03-03T02:25:49.588Z,78.53
2018-03-03T02:28:16.493Z,74.53
2018-03-03T02:30:42.671Z,72.27
2018-03-03T02:33:08.832Z,82.70
2018-03-03T02:35:35.771Z,76.97
2018-03-03T02:38:02.678Z,70.20
2018-03-03T02:40:28.847Z,77.20
2018-03-03T02:42:55.805Z,75.23
2018-03-03T02:45:21.950Z,74.73
2018-03-03T02:47:48.088Z,75.70
2018-03-03T02:50:14.332Z,72.33
2018-03-03T02:52:40.478Z,66.60
2018-03-03T02:55:06.687Z,71.30
2018-03-03T02:57:32.885Z,73.83
2018-03-03T02:59:59.050Z,73.73
2018-03-03T03:02:25.591Z,74.50
2018-03-03T03:04:51.739Z,76.60
2018-03-03T03:07:18.685Z,72.47
2018-03-03T03:09:45.631Z,72.40
2018-03-03T03:12:12.559Z,65.70
2018-03-03T03:14:38.762Z,75.33
2018-03-03T03:17:04.939Z,75.70
2018-03-03T03:19:31.144Z,79.50
2018-03-03T03:21:57.323Z,74.17
2018-03-03T03:24:23.500Z,71.67
2018-03-03T03:26:50.462Z,66.30
2018-03-03T03:29:17.329Z,69.80
2018-03-03T03:31:43.510Z,71.97
2018-03-03T03:34:09.676Z,72.70
2018-03-03T03:36:35.883Z,80.33
2018-03-03T03:39:02.819Z,73.63
2018-03-03T03:41:29.705Z,77.00
2018-03-03T03:43:55.895Z,71.97
2018-03-03T03:46:22.756Z,72.10
2018-03-03T03:48:49.647Z,73.47
2018-03-03T03:51:15.819Z,83.00
2018-03-03T03:53:42.718Z,77.33
2018-03-03T03:56:08.912Z,79.23
2018-03-03T03:58:35.112Z,72.13
2018-03-03T04:01:02.087Z,70.00
2018-03-03T04:03:28.272Z,74.87
2018-03-03T04:05:55.164Z,72.33
2018-03-03T04:08:21.316Z,79.17
2018-03-03T04:10:47.539Z,79.27
2018-03-03T04:13:13.685Z,75.53
2018-03-03T04:15:39.867Z,78.10
2018-03-03T04:18:06.093Z,82.33
2018-03-03T04:20:32.300Z,73.17
2018-03-03T04:22:59.214Z,77.73
2018-03-03T04:25:25.457Z,78.53
2018-03-03T04:27:52.419Z,74.23
2018-03-03T04:30:19.400Z,79.63
2018-03-03T04:32:45.601Z,71.60
2018-03-03T04:35:12.582Z,77.93
2018-03-03T04:37:38.781Z,73.03
2018-03-03T04:40:04.978Z,77.10
2018-03-03T04:42:31.879Z,82.27
2018-03-03T04:44:58.164Z,81.53
2018-03-03T04:47:25.080Z,84.03
2018-03-03T04:49:51.238Z,80.17
2018-03-03T04:52:18.157Z,76.40
2018-03-03T04:54:45.127Z,77.20
2018-03-03T04:57:12.045Z,75.80
2018-03-03T04:59:41.148Z,75.73
2018-03-03T05:02:09.284Z,79.83
2018-03-03T05:07:40.061Z,72.97
2018-03-03T05:10:06.285Z,77.83
2018-03-03T05:12:38.328Z,75.87
2018-03-03T05:15:16.509Z,71.90
2018-03-03T05:18:01.606Z,77.17
2018-03-03T05:20:34.012Z,76.77
2018-03-03T05:23:06.400Z,82.97
2018-03-03T05:25:39.463Z,73.63
2018-03-03T05:28:11.811Z,83.13
2018-03-03T05:30:57.902Z,79.93
2018-03-03T05:33:30.075Z,83.53
2018-03-03T05:36:02.468Z,83.13
2018-03-03T05:38:34.617Z,84.87
2018-03-03T05:41:00.788Z,81.03
2018-03-03T05:43:32.776Z,101.37
2018-03-03T05:46:13.910Z,87.67
2018-03-03T05:51:48.248Z,82.97
2018-03-03T05:54:19.223Z,77.80
2018-03-03T05:57:06.358Z,80.73
2018-03-03T05:59:49.387Z,73.87
2018-03-03T06:02:26.570Z,80.73
2018-03-03T06:07:55.519Z,73.30
2018-03-03T06:10:25.592Z,76.50
2018-03-03T06:12:51.748Z,81.73
2018-03-03T06:15:17.936Z,77.90
2018-03-03T06:17:44.899Z,79.17
2018-03-03T06:20:11.108Z,72.60
2018-03-03T06:22:37.417Z,79.47
2018-03-03T06:25:04.344Z,78.60
2018-03-03T06:27:30.519Z,78.53
2018-03-03T06:29:56.720Z,85.60
2018-03-03T06:32:23.642Z,80.10
2018-03-03T06:34:49.800Z,83.03
2018-03-03T06:37:16.678Z,81.73
2018-03-03T06:39:42.850Z,72.33
2018-03-03T06:42:09.056Z,79.23
2018-03-03T06:44:35.281Z,75.30
2018-03-03T06:47:01.502Z,85.00
2018-03-03T06:49:27.675Z,80.37
2018-03-03T06:51:53.873Z,76.23
2018-03-03T06:54:20.055Z,83.83
2018-03-03T06:56:46.198Z,75.20
2018-03-03T06:59:12.408Z,72.60
2018-03-03T07:01:38.621Z,81.33
2018-03-03T07:04:05.523Z,82.47
2018-03-03T07:06:31.710Z,79.00
2018-03-03T07:08:57.942Z,77.13
2018-03-03T07:11:24.234Z,80.97
2018-03-03T07:13:51.218Z,77.53
2018-03-03T07:16:17.421Z,79.80
2018-03-03T07:18:44.320Z,74.83
2018-03-03T07:21:10.492Z,80.30
2018-03-03T07:23:37.448Z,79.37
2018-03-03T07:26:03.623Z,71.03
2018-03-03T07:28:29.779Z,79.07
2018-03-03T07:30:55.906Z,78.83
2018-03-03T07:33:22.084Z,78.70
2018-03-03T07:35:48.332Z,90.43
2018-03-03T07:38:14.504Z,98.07
2018-03-03T07:40:41.422Z,84.60
2018-03-03T07:43:07.603Z,80.07
2018-03-03T07:45:33.798Z,81.97
2018-03-03T07:48:00.730Z,81.90
2018-03-03T07:50:27.667Z,80.90
2018-03-03T07:52:53.807Z,77.93
2018-03-03T07:55:20.759Z,86.80
2018-03-03T07:57:47.712Z,81.37
2018-03-03T08:00:14.590Z,91.60
2018-03-03T08:02:40.916Z,81.63
2018-03-03T08:05:07.859Z,80.37
2018-03-03T08:07:34.062Z,81.73
2018-03-03T08:10:00.327Z,82.57
2018-03-03T08:12:26.519Z,82.73
2018-03-03T08:14:53.471Z,81.77
2018-03-03T08:17:19.705Z,89.30
2018-03-03T08:19:45.978Z,81.97
2018-03-03T08:22:12.202Z,91.63
2018-03-03T08:24:38.413Z,84.00
2018-03-03T08:27:04.686Z,85.13
2018-03-03T08:29:31.784Z,89.13
2018-03-03T08:31:58.083Z,85.27
2018-03-03T08:34:24.261Z,84.93
2018-03-03T08:36:50.467Z,89.23
2018-03-03T08:39:16.662Z,84.80
2018-03-03T08:41:43.589Z,81.47
2018-03-03T08:44:09.802Z,90.57
2018-03-03T08:46:35.984Z,92.23
2018-03-03T08:49:02.198Z,91.73
2018-03-03T08:51:28.389Z,90.17
2018-03-03T08:53:54.662Z,83.43
2018-03-03T08:56:20.882Z,88.50
2018-03-03T08:58:47.109Z,96.10
2018-03-03T09:01:14.030Z,91.53
2018-03-03T09:03:40.198Z,86.27
2018-03-03T09:06:06.450Z,89.23
2018-03-03T09:08:32.618Z,89.40
2018-03-03T09:10:59.556Z,94.00
2018-03-03T09:13:26.441Z,97.13
2018-03-03T09:15:52.676Z,87.63
2018-03-03T09:18:18.826Z,97.23
2018-03-03T09:20:44.956Z,92.73
2018-03-03T09:23:11.170Z,90.17
2018-03-03T09:25:37.351Z,93.47
2018-03-03T09:28:04.275Z,87.17
2018-03-03T09:30:30.382Z,94.03
2018-03-03T09:32:56.573Z,92.33
2018-03-03T09:35:22.791Z,100.70
2018-03-03T09:37:49.065Z,97.60
2018-03-03T09:40:15.278Z,104.30
2018-03-03T09:42:41.479Z,93.83
2018-03-03T09:45:07.670Z,104.07
2018-03-03T09:47:33.829Z,92.73
2018-03-03T09:50:00.017Z,102.63
2018-03-03T09:52:26.214Z,100.37
2018-03-03T09:54:52.443Z,94.40
2018-03-03T09:57:18.622Z,96.67
2018-03-03T09:59:45.575Z,97.37
2018-03-03T10:02:12.540Z,105.83
2018-03-03T10:04:38.737Z,98.33
2018-03-03T10:07:05.686Z,97.80
2018-03-03T10:09:32.643Z,100.20
2018-03-03T10:11:58.891Z,98.67
2018-03-03T10:14:25.034Z,101.53
2018-03-03T10:16:51.260Z,94.73
2018-03-03T10:19:17.480Z,97.87
2018-03-03T10:21:43.700Z,102.43
2018-03-03T10:24:09.875Z,103.80
2018-03-03T10:26:36.021Z,97.37
2018-03-03T10:29:02.913Z,100.97
2018-03-03T10:31:29.092Z,98.97
2018-03-03T10:33:56.075Z,97.43
2018-03-03T10:36:22.276Z,95.40
2018-03-03T10:38:49.204Z,96.40
2018-03-03T10:41:15.388Z,89.30
2018-03-03T10:43:41.525Z,98.27
2018-03-03T10:46:07.709Z,100.87
2018-03-03T10:48:34.620Z,98.00
2018-03-03T10:51:01.547Z,101.67
2018-03-03T10:53:27.752Z,95.63
2018-03-03T10:55:53.968Z,100.97
2018-03-03T10:58:20.200Z,102.10
2018-03-03T11:00:49.326Z,96.67
2018-03-03T11:03:22.630Z,96.00
2018-03-03T11:05:48.818Z,97.03
2018-03-03T11:08:14.982Z,93.33
2018-03-03T11:10:41.201Z,94.40
2018-03-03T11:13:07.410Z,98.27
2018-03-03T11:15:33.588Z,96.90
2018-03-03T11:17:59.747Z,97.03
2018-03-03T11:20:25.933Z,92.77
2018-03-03T11:22:52.114Z,100.03
2018-03-03T11:25:18.292Z,100.67
2018-03-03T11:27:45.270Z,99.43
2018-03-03T11:30:11.461Z,96.33
2018-03-03T11:32:37.662Z,88.20
2018-03-03T11:35:03.866Z,91.50
2018-03-03T11:37:30.042Z,96.20
2018-03-03T11:39:56.245Z,90.93
2018-03-03T11:42:22.400Z,99.93
2018-03-03T11:44:48.517Z,116.50
2018-03-03T11:47:14.724Z,109.23
2018-03-03T11:49:40.923Z,102.23
2018-03-03T11:52:07.058Z,94.97
2018-03-03T11:54:33.244Z,96.00
2018-03-03T11:57:00.143Z,90.00
2018-03-03T11:59:26.352Z,89.70
2018-03-03T12:01:52.566Z,86.17
2018-03-03T12:04:18.830Z,86.50
2018-03-03T12:06:45.038Z,95.07
2018-03-03T12:09:11.199Z,92.23
2018-03-03T12:11:37.377Z,91.33
2018-03-03T12:14:03.594Z,87.27
2018-03-03T12:16:29.843Z,89.97
2018-03-03T12:18:56.066Z,88.43
2018-03-03T12:21:22.263Z,92.33
2018-03-03T12:23:49.116Z,88.73
2018-03-03T12:26:16.037Z,86.47
2018-03-03T12:28:42.980Z,85.60
2018-03-03T12:31:09.866Z,80.43
2018-03-03T12:33:36.063Z,92.13
2018-03-03T12:36:02.232Z,81.07
2018-03-03T12:38:28.433Z,80.93
2018-03-03T12:40:55.321Z,80.60
2018-03-03T12:43:21.491Z,78.53
2018-03-03T12:45:47.696Z,84.13
2018-03-03T12:48:14.656Z,85.03
2018-03-03T12:50:41.612Z,85.57
2018-03-03T12:53:08.510Z,84.53
2018-03-03T12:55:34.698Z,78.80
2018-03-03T12:58:00.829Z,84.73
2018-03-03T13:00:27.758Z,79.07
2018-03-03T13:02:54.679Z,79.77
2018-03-03T13:05:20.851Z,74.37
2018-03-03T13:07:47.039Z,74.87
2018-03-03T13:10:13.949Z,82.77
2018-03-03T13:12:40.131Z,73.20
2018-03-03T13:15:07.013Z,75.40
2018-03-03T13:17:33.246Z,74.70
2018-03-03T13:19:59.401Z,75.07
2018-03-03T13:22:25.593Z,75.17
2018-03-03T13:24:51.739Z,75.20
2018-03-03T13:27:17.892Z,69.77
2018-03-03T13:29:44.836Z,81.23
2018-03-03T13:32:10.991Z,76.90
2018-03-03T13:34:37.159Z,76.17
2018-03-03T13:37:03.325Z,74.20
2018-03-03T13:39:30.180Z,71.10
2018-03-03T13:41:57.092Z,74.30
2018-03-03T13:44:23.259Z,71.50
2018-03-03T13:46:50.214Z,69.17
2018-03-03T13:49:16.442Z,73.00
2018-03-03T13:51:42.656Z,62.40
2018-03-03T13:54:09.588Z,69.93
2018-03-03T13:56:36.555Z,71.17
2018-03-03T13:59:02.791Z,71.93
2018-03-03T14:01:28.985Z,66.73
2018-03-03T14:03:55.176Z,73.07
2018-03-03T14:06:21.290Z,66.40
2018-03-03T14:08:47.423Z,73.63
2018-03-03T14:11:13.634Z,66.87
2018-03-03T14:13:39.809Z,73.57
2018-03-03T14:16:06.714Z,66.77
2018-03-03T14:18:32.931Z,71.57
2018-03-03T14:20:59.109Z,69.93
2018-03-03T14:23:25.990Z,70.30
2018-03-03T14:25:52.178Z,68.37
2018-03-03T14:28:19.147Z,66.20
2018-03-03T14:30:46.000Z,68.47
2018-03-03T14:33:12.956Z,60.20
2018-03-03T14:35:39.096Z,62.87
2018-03-03T14:38:05.329Z,59.90
2018-03-03T14:40:31.555Z,65.47
2018-03-03T14:42:57.743Z,63.57
2018-03-03T14:45:24.706Z,57.43
2018-03-03T14:47:50.902Z,54.40
2018-03-03T14:50:17.099Z,57.43
2018-03-03T14:52:43.255Z,60.63
2018-03-03T14:55:10.178Z,58.50
2018-03-03T14:57:36.378Z,59.23
2018-03-03T15:00:02.589Z,59.10
2018-03-03T15:02:28.799Z,55.20
2018-03-03T15:04:55.673Z,55.43
2018-03-03T15:07:21.816Z,48.70
2018-03-03T15:09:48.016Z,53.87
2018-03-03T15:12:14.213Z,60.20
2018-03-03T15:14:41.208Z,59.77
2018-03-03T15:17:08.061Z,58.90
2018-03-03T15:19:34.338Z,60.63
2018-03-03T15:22:01.227Z,59.27
2018-03-03T15:24:27.430Z,60.57
2018-03-03T15:26:53.638Z,58.53
2018-03-03T15:29:20.562Z,56.63
2018-03-03T15:31:47.101Z,68.40
2018-03-03T15:34:13.225Z,69.13
2018-03-03T15:36:39.442Z,64.00
2018-03-03T15:39:05.611Z,69.07
2018-03-03T15:41:32.548Z,61.90
2018-03-03T15:43:59.467Z,72.73
2018-03-03T15:46:25.632Z,71.97
2018-03-03T15:48:51.798Z,73.97
2018-03-03T15:51:17.983Z,69.10
2018-03-03T15:53:44.955Z,72.83
2018-03-03T15:56:11.181Z,75.50
2018-03-03T15:58:37.333Z,74.07
2018-03-03T16:01:03.496Z,70.97
2018-03-03T16:03:30.466Z,74.97
2018-03-03T16:05:57.628Z,67.87
2018-03-03T16:08:23.803Z,73.13
2018-03-03T16:10:49.981Z,64.33
2018-03-03T16:13:16.214Z,70.50
2018-03-03T16:15:42.367Z,70.47
2018-03-03T16:18:08.564Z,78.47
2018-03-03T16:20:34.694Z,72.80
2018-03-03T16:23:00.914Z,74.73
2018-03-03T16:25:27.111Z,72.50
2018-03-03T16:27:54.034Z,68.80
2018-03-03T16:30:20.940Z,71.67
2018-03-03T16:32:47.144Z,68.73
2018-03-03T16:35:13.340Z,76.20
2018-03-03T16:37:40.268Z,67.83
2018-03-03T16:40:06.459Z,68.87
2018-03-03T16:42:32.612Z,73.47
2018-03-03T16:44:58.819Z,68.63
2018-03-03T16:47:24.977Z,65.30
2018-03-03T16:49:51.119Z,77.53
2018-03-03T16:52:18.010Z,66.03
2018-03-03T16:54:44.171Z,70.70
2018-03-03T16:57:10.369Z,70.60
2018-03-03T16:59:36.512Z,68.83
2018-03-03T17:02:02.633Z,75.97
2018-03-03T17:04:28.775Z,73.83
2018-03-03T17:06:54.928Z,84.00
2018-03-03T17:09:21.084Z,112.30
2018-03-03T17:11:47.273Z,136.03
2018-03-03T17:14:14.157Z,100.20
2018-03-03T17:16:40.386Z,101.80
2018-03-03T17:19:06.571Z,94.37
2018-03-03T17:21:32.733Z,82.70
2018-03-03T17:23:58.905Z,74.23
2018-03-03T17:26:25.112Z,79.37
2018-03-03T17:28:51.287Z,73.50
2018-03-03T17:31:17.433Z,81.53
2018-03-03T17:33:44.318Z,75.73
2018-03-03T17:36:10.522Z,70.83
2018-03-03T17:38:36.687Z,68.83
2018-03-03T17:41:02.923Z,76.50
2018-03-03T17:43:29.083Z,74.47
2018-03-03T17:45:55.968Z,75.77
2018-03-03T17:48:22.137Z,78.27
2018-03-03T17:50:48.347Z,71.50
2018-03-03T17:53:14.535Z,77.33
2018-03-03T17:55:40.742Z,79.83
2018-03-03T17:58:07.644Z,73.00
2018-03-03T18:00:34.659Z,72.00
2018-03-03T18:03:00.820Z,74.53
2018-03-03T18:05:26.962Z,77.00
2018-03-03T18:07:53.898Z,83.83
2018-03-03T18:10:20.048Z,83.43
2018-03-03T18:12:46.940Z,82.70
2018-03-03T18:15:13.109Z,79.40
2018-03-03T18:17:39.267Z,80.83
2018-03-03T18:20:05.420Z,82.00
2018-03-03T18:22:31.598Z,73.70
2018-03-03T18:24:58.488Z,81.07
2018-03-03T18:27:24.659Z,76.67
2018-03-03T18:29:50.793Z,85.00
2018-03-03T18:32:17.680Z,81.00
2018-03-03T18:34:43.900Z,87.13
2018-03-03T18:37:10.088Z,81.37
2018-03-03T18:39:37.063Z,88.40
2018-03-03T18:42:03.271Z,86.87
2018-03-03T18:44:30.192Z,83.20
2018-03-03T18:46:56.382Z,88.40
2018-03-03T18:49:22.580Z,84.77
2018-03-03T18:51:48.798Z,83.40
2018-03-03T18:54:15.656Z,86.03
2018-03-03T18:56:42.608Z,93.00
2018-03-03T18:59:08.748Z,91.90
2018-03-03T19:01:34.974Z,86.80
2018-03-03T19:04:01.138Z,100.20
2018-03-03T19:06:27.344Z,90.37
2018-03-03T19:08:53.535Z,93.53
2018-03-03T19:11:19.703Z,84.60
2018-03-03T19:13:45.939Z,96.47
2018-03-03T19:16:12.393Z,88.60
2018-03-03T19:18:39.342Z,96.03
2018-03-03T19:21:06.243Z,85.10
2018-03-03T19:23:32.433Z,91.53
2018-03-03T19:25:59.404Z,104.00
2018-03-03T19:28:25.603Z,109.37
2018-03-03T19:30:51.828Z,126.43
2018-03-03T19:33:18.801Z,94.57
2018-03-03T19:35:45.675Z,79.63
2018-03-03T19:38:11.833Z,81.57
2018-03-03T19:40:37.946Z,84.47
2018-03-03T19:43:04.925Z,82.87
2018-03-03T19:45:31.088Z,82.63
2018-03-03T19:47:57.276Z,75.57
2018-03-03T19:50:24.244Z,86.23
2018-03-03T19:52:50.474Z,86.07
2018-03-03T19:55:16.615Z,75.70
2018-03-03T19:57:42.802Z,77.57
2018-03-03T20:00:09.741Z,80.10
2018-03-03T20:02:36.704Z,78.80
2018-03-03T20:05:02.988Z,79.10
2018-03-03T20:07:29.930Z,79.20
2018-03-03T20:09:56.128Z,77.13
2018-03-03T20:12:22.352Z,78.90
2018-03-03T20:14:48.527Z,76.17
2018-03-03T20:17:14.691Z,86.90
2018-03-03T20:19:40.860Z,81.50
2018-03-03T20:22:07.084Z,78.93
2018-03-03T20:24:33.283Z,79.47
2018-03-03T20:26:59.482Z,84.53
2018-03-03T20:29:26.404Z,85.70
2018-03-03T20:31:52.586Z,80.27
2018-03-03T20:34:18.793Z,83.00
2018-03-03T20:36:45.049Z,75.30
2018-03-03T20:39:11.185Z,77.33
2018-03-03T20:41:37.381Z,72.00
2018-03-03T20:44:04.293Z,84.20
2018-03-03T20:46:31.246Z,83.60
2018-03-03T20:48:58.170Z,73.87
2018-03-03T20:51:24.435Z,78.17
2018-03-03T20:53:51.384Z,77.30
2018-03-03T20:56:18.374Z,75.70
2018-03-03T20:58:44.571Z,88.17
2018-03-03T21:01:10.760Z,85.47
2018-03-03T21:03:36.979Z,94.13
2018-03-03T21:06:03.145Z,92.40
2018-03-03T21:08:29.308Z,94.87
2018-03-03T21:10:55.511Z,86.57
2018-03-03T21:13:21.708Z,84.23
2018-03-03T21:15:47.832Z,87.53
2018-03-03T21:18:14.024Z,81.93
2018-03-03T21:20:40.220Z,90.10
2018-03-03T21:23:06.427Z,81.33
2018-03-03T21:25:33.370Z,75.77
2018-03-03T21:28:00.247Z,71.77
2018-03-03T21:30:26.432Z,79.40
2018-03-03T21:32:53.340Z,75.53
2018-03-03T21:35:19.511Z,77.43
2018-03-03T21:37:46.435Z,76.00
2018-03-03T21:40:13.359Z,77.20
2018-03-03T21:42:39.581Z,76.53
2018-03-03T21:45:05.705Z,80.17
2018-03-03T21:47:31.962Z,76.50
2018-03-03T21:49:58.135Z,75.53
2018-03-03T21:52:24.346Z,72.10
2018-03-03T21:54:50.546Z,76.23
2018-03-03T21:57:17.483Z,82.10
2018-03-03T21:59:43.706Z,72.53
2018-03-03T22:02:09.901Z,76.17
2018-03-03T22:04:36.053Z,73.50
2018-03-03T22:07:02.224Z,71.43
2018-03-03T22:09:29.174Z,75.40
2018-03-03T22:11:55.389Z,79.03
2018-03-03T22:14:22.294Z,70.73
2018-03-03T22:16:48.400Z,73.27
2018-03-03T22:19:14.530Z,71.40
2018-03-03T22:21:40.686Z,75.90
2018-03-03T22:24:06.829Z,72.87
2018-03-03T22:26:33.015Z,71.13
2018-03-03T22:28:59.239Z,75.10
2018-03-03T22:31:25.376Z,70.10
2018-03-03T22:33:51.600Z,71.17
2018-03-03T22:36:17.837Z,72.53
2018-03-03T22:38:44.002Z,72.47
2018-03-03T22:41:10.978Z,67.20
2018-03-03T22:43:37.147Z,68.17
2018-03-03T22:46:03.456Z,72.37
2018-03-03T22:48:29.692Z,72.77
2018-03-03T22:50:55.883Z,69.60
2018-03-03T22:53:22.032Z,69.20
2018-03-03T22:55:48.213Z,74.20
2018-03-03T22:58:15.167Z,65.00
2018-03-03T23:00:42.170Z,71.17
2018-03-03T23:03:08.335Z,79.80
2018-03-03T23:05:35.257Z,73.00
2018-03-03T23:08:01.431Z,64.77
2018-03-03T23:10:27.664Z,70.43
2018-03-03T23:12:53.868Z,73.03
2018-03-03T23:15:19.999Z,72.30
2018-03-03T23:17:46.934Z,77.03
2018-03-03T23:20:13.817Z,72.60
2018-03-03T23:22:40.008Z,67.73
2018-03-03T23:25:06.906Z,69.87
2018-03-03T23:27:33.152Z,73.10
2018-03-03T23:29:59.336Z,80.70
2018-03-03T23:32:25.515Z,74.20
2018-03-03T23:34:51.658Z,76.53
2018-03-03T23:37:18.579Z,71.20
2018-03-03T23:39:44.701Z,65.27
2018-03-03T23:42:10.876Z,77.80
2018-03-03T23:44:37.074Z,71.33
2018-03-03T23:47:04.004Z,68.33
2018-03-03T23:49:30.962Z,72.43
2018-03-03T23:51:57.093Z,65.27
2018-03-03T23:54:23.936Z,70.37
2018-03-03T23:56:50.835Z,68.97
2018-03-03T23:59:17.012Z,67.93
